createdAt,value
2023-03-25T00:06:56.302Z,67.10
2023-03-25T00:17:01.457Z,67.10
2023-03-25T00:27:05.102Z,66.77
2023-03-25T00:37:10.939Z,67.12
2023-03-25T00:47:20.685Z,67.20
2023-03-25T00:57:24.456Z,67.47
2023-03-25T01:07:30.594Z,67.22
2023-03-25T01:17:35.198Z,66.76
2023-03-25T01:27:41.536Z,66.54
2023-03-25T01:37:47.665Z,66.94
2023-03-25T01:48:03.103Z,66.60
2023-03-25T01:58:14.265Z,66.58
2023-03-25T02:08:21.055Z,66.77
2023-03-25T02:18:38.000Z,66.76
2023-03-25T02:28:56.349Z,66.99
2023-03-25T02:39:08.484Z,67.06
2023-03-25T02:49:21.809Z,67.53
2023-03-25T02:59:33.614Z,67.61
2023-03-25T03:10:21.639Z,68.16
2023-03-25T03:20:53.119Z,68.57
2023-03-25T03:31:09.629Z,68.62
2023-03-25T03:41:20.825Z,68.40
2023-03-25T03:51:39.793Z,68.35
2023-03-25T04:01:56.684Z,68.32
2023-03-25T04:12:06.796Z,68.31
2023-03-25T04:22:10.492Z,68.27
2023-03-25T04:32:17.969Z,68.01
2023-03-25T04:42:27.666Z,68.05
2023-03-25T04:52:31.377Z,67.73
2023-03-25T05:02:34.948Z,67.29
2023-03-25T05:12:40.404Z,67.16
2023-03-25T05:22:46.141Z,66.99
2023-03-25T05:32:56.593Z,66.14
2023-03-25T05:43:01.116Z,65.47
2023-03-25T05:53:06.277Z,64.94
2023-03-25T06:03:11.445Z,64.56
2023-03-25T06:13:16.537Z,63.85
2023-03-25T06:23:24.350Z,62.98
2023-03-25T06:33:42.335Z,62.49
2023-03-25T06:43:49.866Z,62.17
2023-03-25T06:54:17.678Z,62.90
2023-03-25T07:04:21.415Z,63.07
2023-03-25T07:14:25.791Z,62.78
2023-03-25T07:24:31.320Z,62.67
2023-03-25T07:34:35.777Z,63.23
2023-03-25T07:44:39.301Z,62.91
2023-03-25T07:54:44.903Z,63.25
2023-03-25T08:04:49.201Z,62.83
2023-03-25T08:14:54.526Z,62.81
2023-03-25T08:24:59.640Z,62.19
2023-03-25T08:35:08.111Z,61.35
2023-03-25T08:45:15.989Z,60.64
2023-03-25T08:55:19.671Z,60.00
2023-03-25T09:05:28.109Z,60.11
2023-03-25T09:15:34.333Z,59.03
2023-03-25T09:25:38.449Z,58.63
2023-03-25T09:35:42.199Z,58.70
2023-03-25T09:45:48.655Z,57.10
2023-03-25T09:55:53.504Z,56.06
2023-03-25T10:06:21.027Z,55.14
2023-03-25T10:16:51.101Z,54.03
2023-03-25T10:27:20.805Z,53.73
2023-03-25T10:37:39.654Z,53.28
2023-03-25T10:47:47.757Z,51.79
2023-03-25T10:57:52.885Z,49.69
2023-03-25T11:08:18.129Z,48.48
2023-03-25T11:18:34.352Z,47.68
2023-03-25T11:29:02.741Z,46.72
2023-03-25T11:39:23.562Z,47.36
2023-03-25T11:49:29.842Z,47.52
2023-03-25T11:59:39.859Z,47.87
2023-03-25T12:09:57.928Z,48.09
2023-03-25T12:20:13.496Z,48.66
2023-03-25T12:30:36.300Z,49.34
2023-03-25T12:41:11.237Z,49.04
2023-03-25T12:51:43.763Z,48.98
2023-03-25T13:02:16.637Z,48.44
2023-03-25T13:12:23.385Z,49.65
2023-03-25T13:22:35.015Z,49.72
2023-03-25T13:32:50.545Z,49.17
2023-03-25T13:43:20.577Z,50.01
2023-03-25T13:53:56.217Z,51.41
2023-03-25T14:04:20.998Z,51.54
2023-03-25T14:14:25.784Z,52.16
2023-03-25T14:24:33.181Z,52.92
2023-03-25T14:34:39.370Z,53.87
2023-03-25T14:45:06.094Z,55.06
2023-03-25T14:55:19.328Z,55.52
2023-03-25T15:05:29.655Z,54.95
2023-03-25T15:15:52.538Z,55.03
2023-03-25T15:25:58.062Z,54.73
2023-03-25T15:36:35.771Z,54.70
2023-03-25T15:46:58.239Z,55.19
2023-03-25T15:57:17.256Z,56.14
2023-03-25T16:07:30.547Z,57.26
2023-03-25T16:18:22.615Z,58.03
2023-03-25T16:28:39.784Z,58.56
2023-03-25T16:39:53.465Z,58.95
2023-03-25T16:50:00.753Z,59.27
2023-03-25T17:00:17.736Z,59.36
2023-03-25T17:10:27.577Z,59.83
2023-03-25T17:20:37.913Z,59.54
2023-03-25T17:30:44.395Z,60.16
2023-03-25T17:40:58.481Z,60.84
2023-03-25T17:51:04.560Z,61.72
2023-03-25T18:01:10.175Z,62.45
2023-03-25T18:11:13.999Z,62.66
2023-03-25T18:21:21.632Z,63.15
2023-03-25T18:31:26.054Z,63.59
2023-03-25T18:41:31.632Z,63.95
2023-03-25T18:51:37.826Z,63.88
2023-03-25T19:01:42.695Z,64.10
2023-03-25T19:11:47.577Z,64.25
2023-03-25T19:21:54.549Z,64.16
2023-03-25T19:32:00.114Z,64.54
2023-03-25T19:42:04.941Z,64.36
2023-03-25T19:52:08.686Z,64.37
2023-03-25T20:02:12.401Z,64.23
2023-03-25T20:12:16.128Z,63.77
2023-03-25T20:22:24.949Z,63.15
2023-03-25T20:32:39.940Z,62.70
2023-03-25T20:42:47.240Z,62.78
2023-03-25T20:52:51.110Z,62.80
2023-03-25T21:02:55.789Z,62.87
2023-03-25T21:12:59.571Z,62.95
2023-03-25T21:23:05.615Z,63.00
2023-03-25T21:33:10.668Z,62.90
2023-03-25T21:43:16.327Z,62.91
2023-03-25T21:53:19.893Z,62.89
2023-03-25T22:03:30.274Z,62.89
2023-03-25T22:13:36.287Z,63.06
2023-03-25T22:23:42.073Z,62.92
2023-03-25T22:33:46.876Z,62.90
2023-03-25T22:43:50.587Z,63.21
2023-03-25T22:53:54.331Z,63.51
2023-03-25T23:04:02.806Z,63.54
2023-03-25T23:14:10.766Z,63.49
2023-03-25T23:24:14.486Z,63.58
2023-03-25T23:34:18.318Z,63.73
2023-03-25T23:44:22.522Z,63.87
2023-03-25T23:54:27.348Z,64.08
